createdAt,value
2022-08-28T00:00:24.519Z,19.25
2022-08-28T00:01:24.480Z,19.28
2022-08-28T00:02:24.484Z,19.28
2022-08-28T00:03:24.407Z,19.28
2022-08-28T00:04:24.398Z,19.21
2022-08-28T00:05:24.339Z,19.27
2022-08-28T00:06:24.294Z,19.30
2022-08-28T00:07:24.260Z,19.31
2022-08-28T00:08:24.220Z,19.25
2022-08-28T00:09:24.182Z,19.23
2022-08-28T00:10:24.151Z,19.17
2022-08-28T00:11:24.119Z,19.20
2022-08-28T00:12:24.071Z,19.17
2022-08-28T00:13:24.035Z,19.17
2022-08-28T00:14:24.001Z,19.12
2022-08-28T00:15:23.962Z,19.10
2022-08-28T00:16:24.015Z,19.16
2022-08-28T00:17:23.891Z,19.09
2022-08-28T00:18:23.851Z,19.13
2022-08-28T00:19:23.816Z,19.13
2022-08-28T00:20:23.775Z,19.12
2022-08-28T00:21:23.742Z,19.20
2022-08-28T00:22:23.715Z,19.12
2022-08-28T00:23:23.666Z,19.02
2022-08-28T00:24:23.639Z,19.06
2022-08-28T00:25:23.592Z,19.06
2022-08-28T00:26:23.559Z,18.97
2022-08-28T00:27:23.516Z,19.07
2022-08-28T00:28:24.588Z,19.06
2022-08-28T00:29:23.441Z,19.05
2022-08-28T00:30:23.405Z,18.97
2022-08-28T00:31:23.391Z,18.96
2022-08-28T00:32:23.336Z,18.90
2022-08-28T00:33:23.304Z,18.93
2022-08-28T00:34:33.483Z,18.93
2022-08-28T00:35:23.220Z,18.90
2022-08-28T00:36:23.183Z,18.83
2022-08-28T00:37:24.610Z,18.83
2022-08-28T00:38:23.132Z,18.84
2022-08-28T00:39:23.073Z,18.93
2022-08-28T00:40:28.917Z,18.75
2022-08-28T00:41:24.964Z,18.75
2022-08-28T00:42:22.958Z,18.69
2022-08-28T00:43:22.926Z,18.74
2022-08-28T00:44:22.897Z,18.71
2022-08-28T00:45:22.848Z,18.72
2022-08-28T00:46:22.877Z,18.74
2022-08-28T00:47:22.777Z,18.71
2022-08-28T00:48:22.739Z,18.66
2022-08-28T00:49:22.702Z,18.62
2022-08-28T00:50:22.677Z,18.66
2022-08-28T00:51:22.625Z,18.53
2022-08-28T00:52:22.589Z,18.62
2022-08-28T00:53:23.554Z,18.60
2022-08-28T00:54:22.515Z,18.53
2022-08-28T00:55:22.479Z,18.53
2022-08-28T00:56:22.451Z,18.50
2022-08-28T00:57:22.403Z,18.64
2022-08-28T00:58:22.365Z,18.54
2022-08-28T00:59:22.326Z,18.54
2022-08-28T01:00:22.294Z,18.49
2022-08-28T01:01:22.305Z,18.53
2022-08-28T01:02:22.299Z,18.57
2022-08-28T01:03:25.108Z,18.57
2022-08-28T01:04:22.152Z,18.54
2022-08-28T01:05:22.102Z,18.53
2022-08-28T01:06:22.070Z,18.53
2022-08-28T01:07:22.040Z,18.57
2022-08-28T01:08:22.902Z,18.41
2022-08-28T01:09:21.954Z,18.46
2022-08-28T01:10:21.918Z,18.32
2022-08-28T01:11:21.880Z,18.31
2022-08-28T01:12:21.844Z,18.38
2022-08-28T01:13:21.816Z,18.34
2022-08-28T01:14:21.770Z,18.39
2022-08-28T01:15:21.732Z,18.41
2022-08-28T01:16:21.772Z,18.35
2022-08-28T01:17:21.654Z,18.35
2022-08-28T01:18:21.619Z,18.35
2022-08-28T01:19:21.593Z,18.36
2022-08-28T01:20:21.546Z,18.28
2022-08-28T01:21:21.507Z,18.31
2022-08-28T01:22:21.472Z,18.32
2022-08-28T01:23:21.431Z,18.23
2022-08-28T01:24:21.407Z,18.35
2022-08-28T01:25:21.356Z,18.34
2022-08-28T01:26:21.320Z,18.31
2022-08-28T01:27:21.282Z,18.38
2022-08-28T01:28:21.247Z,18.28
2022-08-28T01:29:21.211Z,18.25
2022-08-28T01:30:21.184Z,18.26
2022-08-28T01:31:21.196Z,18.26
2022-08-28T01:32:21.098Z,18.29
2022-08-28T01:33:28.257Z,18.26
2022-08-28T01:34:21.023Z,18.31
2022-08-28T01:35:20.984Z,18.21
2022-08-28T01:36:20.947Z,18.26
2022-08-28T01:37:20.920Z,18.26
2022-08-28T01:38:22.014Z,18.23
2022-08-28T01:39:20.838Z,18.25
2022-08-28T01:40:20.845Z,18.29
2022-08-28T01:41:20.762Z,18.23
2022-08-28T01:42:20.723Z,18.19
2022-08-28T01:43:20.696Z,18.17
2022-08-28T01:44:20.655Z,18.05
2022-08-28T01:45:20.609Z,18.16
2022-08-28T01:46:20.634Z,18.14
2022-08-28T01:47:20.534Z,18.14
2022-08-28T01:48:20.500Z,18.16
2022-08-28T01:49:20.469Z,18.07
2022-08-28T01:50:20.431Z,17.98
2022-08-28T01:51:24.478Z,17.96
2022-08-28T01:52:26.300Z,18.04
2022-08-28T01:53:20.308Z,18.01
2022-08-28T01:54:20.273Z,18.05
2022-08-28T01:55:21.511Z,18.10
2022-08-28T01:56:20.196Z,17.91
2022-08-28T01:57:20.170Z,17.95
2022-08-28T01:58:20.124Z,17.86
2022-08-28T01:59:20.090Z,17.83
2022-08-28T02:00:20.048Z,17.86
2022-08-28T02:01:20.051Z,17.83
2022-08-28T02:02:19.974Z,17.87
2022-08-28T02:03:19.948Z,17.81
2022-08-28T02:04:19.953Z,17.89
2022-08-28T02:05:19.861Z,17.87
2022-08-28T02:06:19.826Z,17.86
2022-08-28T02:07:19.783Z,17.81
2022-08-28T02:08:19.746Z,17.79
2022-08-28T02:09:19.722Z,17.84
2022-08-28T02:10:19.678Z,17.80
2022-08-28T02:11:19.633Z,17.81
2022-08-28T02:12:19.599Z,17.83
2022-08-28T02:13:19.559Z,17.58
2022-08-28T02:14:19.526Z,17.76
2022-08-28T02:15:19.498Z,17.77
2022-08-28T02:16:19.502Z,17.65
2022-08-28T02:17:19.412Z,17.68
2022-08-28T02:18:19.374Z,17.74
2022-08-28T02:19:19.336Z,17.74
2022-08-28T02:20:19.294Z,17.66
2022-08-28T02:21:19.270Z,17.65
2022-08-28T02:22:19.222Z,17.70
2022-08-28T02:23:19.183Z,17.62
2022-08-28T02:24:19.143Z,17.57
2022-08-28T02:25:19.107Z,17.63
2022-08-28T02:26:19.083Z,17.57
2022-08-28T02:27:19.035Z,17.65
2022-08-28T02:28:19.004Z,17.63
2022-08-28T02:29:18.958Z,17.47
2022-08-28T02:30:18.920Z,17.42
2022-08-28T02:31:18.914Z,17.43
2022-08-28T02:32:18.842Z,17.45
2022-08-28T02:33:18.811Z,17.46
2022-08-28T02:34:18.782Z,17.47
2022-08-28T02:35:18.734Z,17.38
2022-08-28T02:36:18.692Z,17.45
2022-08-28T02:37:18.651Z,17.53
2022-08-28T02:38:18.897Z,17.42
2022-08-28T02:39:18.583Z,17.47
2022-08-28T02:40:18.570Z,17.42
2022-08-28T02:41:18.507Z,17.42
2022-08-28T02:42:18.465Z,17.36
2022-08-28T02:43:18.427Z,17.42
2022-08-28T02:44:18.391Z,17.40
2022-08-28T02:45:18.352Z,17.38
2022-08-28T02:46:18.363Z,17.33
2022-08-28T02:47:18.280Z,17.35
2022-08-28T02:48:18.489Z,17.32
2022-08-28T02:49:18.202Z,17.38
2022-08-28T02:50:18.163Z,17.30
2022-08-28T02:51:18.133Z,17.38
2022-08-28T02:52:18.097Z,17.36
2022-08-28T02:53:18.050Z,17.35
2022-08-28T02:54:18.551Z,17.40
2022-08-28T02:55:17.979Z,17.38
2022-08-28T02:56:17.936Z,17.28
2022-08-28T02:57:17.901Z,17.36
2022-08-28T02:58:17.873Z,17.35
2022-08-28T02:59:17.825Z,17.17
2022-08-28T03:00:17.785Z,17.32
2022-08-28T03:01:17.794Z,17.28
2022-08-28T03:02:17.743Z,17.30
2022-08-28T03:03:17.673Z,17.35
2022-08-28T03:04:17.648Z,17.24
2022-08-28T03:05:17.599Z,17.17
2022-08-28T03:06:17.560Z,17.21
2022-08-28T03:07:17.524Z,17.20
2022-08-28T03:08:17.486Z,17.21
2022-08-28T03:09:17.444Z,17.21
2022-08-28T03:10:17.418Z,17.15
2022-08-28T03:11:17.374Z,17.09
2022-08-28T03:12:17.331Z,17.12
2022-08-28T03:13:26.430Z,17.18
2022-08-28T03:14:17.261Z,17.21
2022-08-28T03:15:17.236Z,17.20
2022-08-28T03:16:17.193Z,17.05
2022-08-28T03:17:17.144Z,17.17
2022-08-28T03:18:17.109Z,17.17
2022-08-28T03:19:17.069Z,17.12
2022-08-28T03:20:17.028Z,17.12
2022-08-28T03:21:17.010Z,17.22
2022-08-28T03:22:16.956Z,17.20
2022-08-28T03:23:16.916Z,17.20
2022-08-28T03:24:16.878Z,17.12
2022-08-28T03:25:16.842Z,17.05
2022-08-28T03:26:16.819Z,17.17
2022-08-28T03:27:16.766Z,17.10
2022-08-28T03:28:16.727Z,17.07
2022-08-28T03:29:16.689Z,17.07
2022-08-28T03:30:16.650Z,17.09
2022-08-28T03:31:16.677Z,17.09
2022-08-28T03:32:16.585Z,17.03
2022-08-28T03:33:16.539Z,17.05
2022-08-28T03:34:16.500Z,16.98
2022-08-28T03:35:16.462Z,16.95
2022-08-28T03:36:16.423Z,17.03
2022-08-28T03:37:16.389Z,16.98
2022-08-28T03:38:16.361Z,16.91
2022-08-28T03:39:16.309Z,17.00
2022-08-28T03:40:16.348Z,16.85
2022-08-28T03:41:16.237Z,16.96
2022-08-28T03:42:16.198Z,16.82
2022-08-28T03:43:16.161Z,16.78
2022-08-28T03:44:16.136Z,16.88
2022-08-28T03:45:16.085Z,16.77
2022-08-28T03:46:16.162Z,16.75
2022-08-28T03:47:16.010Z,16.77
2022-08-28T03:48:15.970Z,16.77
2022-08-28T03:49:15.934Z,16.73
2022-08-28T03:50:15.920Z,16.70
2022-08-28T03:51:15.859Z,16.66
2022-08-28T03:52:15.821Z,16.69
2022-08-28T03:53:15.781Z,16.65
2022-08-28T03:54:15.741Z,16.60
2022-08-28T03:55:15.707Z,16.63
2022-08-28T03:56:15.676Z,16.65
2022-08-28T03:57:15.629Z,16.60
2022-08-28T03:58:18.932Z,16.52
2022-08-28T03:59:15.552Z,16.59
2022-08-28T04:00:15.515Z,16.55
2022-08-28T04:01:15.580Z,16.65
2022-08-28T04:02:15.438Z,16.50
2022-08-28T04:03:15.442Z,16.54
2022-08-28T04:04:15.376Z,16.50
2022-08-28T04:05:15.324Z,16.47
2022-08-28T04:06:15.284Z,16.55
2022-08-28T04:07:15.247Z,16.55
2022-08-28T04:08:15.208Z,16.47
2022-08-28T04:09:15.170Z,16.48
2022-08-28T04:10:15.145Z,16.52
2022-08-28T04:11:15.099Z,16.40
2022-08-28T04:12:15.056Z,16.45
2022-08-28T04:13:15.022Z,16.50
2022-08-28T04:14:14.981Z,16.51
2022-08-28T04:15:14.943Z,16.52
2022-08-28T04:16:14.957Z,16.55
2022-08-28T04:17:14.867Z,16.40
2022-08-28T04:18:15.033Z,16.42
2022-08-28T04:19:14.791Z,16.47
2022-08-28T04:20:14.752Z,16.44
2022-08-28T04:21:14.719Z,16.41
2022-08-28T04:22:14.693Z,16.45
2022-08-28T04:23:14.639Z,16.33
2022-08-28T04:24:14.598Z,16.51
2022-08-28T04:25:14.563Z,16.44
2022-08-28T04:26:14.528Z,16.44
2022-08-28T04:27:14.488Z,16.41
2022-08-28T04:28:14.612Z,16.44
2022-08-28T04:29:14.412Z,16.47
2022-08-28T04:30:14.372Z,16.37
2022-08-28T04:31:14.384Z,16.37
2022-08-28T04:32:14.333Z,16.32
2022-08-28T04:33:14.257Z,16.47
2022-08-28T04:34:14.232Z,16.34
2022-08-28T04:35:14.181Z,16.32
2022-08-28T04:36:14.141Z,16.42
2022-08-28T04:37:14.105Z,16.44
2022-08-28T04:38:14.200Z,16.30
2022-08-28T04:39:14.028Z,16.47
2022-08-28T04:40:14.056Z,16.36
2022-08-28T04:41:13.953Z,16.36
2022-08-28T04:42:13.912Z,16.26
2022-08-28T04:43:13.876Z,16.22
2022-08-28T04:44:13.835Z,16.25
2022-08-28T04:45:13.797Z,16.22
2022-08-28T04:46:13.809Z,16.32
2022-08-28T04:47:13.724Z,16.22
2022-08-28T04:48:13.981Z,16.23
2022-08-28T04:49:13.645Z,16.32
2022-08-28T04:50:13.607Z,16.34
2022-08-28T04:51:13.584Z,16.29
2022-08-28T04:52:13.533Z,16.37
2022-08-28T04:53:13.496Z,16.33
2022-08-28T04:54:13.455Z,16.36
2022-08-28T04:55:13.420Z,16.33
2022-08-28T04:56:23.215Z,16.44
2022-08-28T04:57:13.343Z,16.44
2022-08-28T04:58:13.375Z,16.42
2022-08-28T04:59:13.275Z,16.41
2022-08-28T05:00:13.251Z,16.40
2022-08-28T05:01:13.217Z,16.42
2022-08-28T05:02:13.260Z,16.37
2022-08-28T05:03:13.113Z,16.44
2022-08-28T05:04:13.073Z,16.45
2022-08-28T05:05:13.035Z,16.45
2022-08-28T05:06:13.008Z,16.48
2022-08-28T05:07:12.959Z,16.45
2022-08-28T05:08:13.034Z,16.54
2022-08-28T05:09:12.884Z,16.55
2022-08-28T05:10:12.852Z,16.54
2022-08-28T05:11:12.806Z,16.51
2022-08-28T05:12:12.776Z,16.55
2022-08-28T05:13:12.731Z,16.59
2022-08-28T05:14:15.899Z,16.66
2022-08-28T05:15:12.655Z,16.54
2022-08-28T05:16:12.655Z,16.57
2022-08-28T05:17:12.617Z,16.65
2022-08-28T05:18:12.676Z,16.59
2022-08-28T05:19:12.524Z,16.59
2022-08-28T05:20:12.462Z,16.65
2022-08-28T05:21:14.473Z,16.66
2022-08-28T05:22:12.401Z,16.69
2022-08-28T05:23:12.357Z,16.62
2022-08-28T05:24:12.310Z,16.75
2022-08-28T05:25:12.276Z,16.66
2022-08-28T05:26:12.238Z,16.75
2022-08-28T05:27:12.200Z,16.75
2022-08-28T05:28:12.489Z,16.80
2022-08-28T05:29:12.121Z,16.75
2022-08-28T05:30:12.083Z,16.80
2022-08-28T05:31:12.082Z,16.80
2022-08-28T05:32:12.008Z,16.85
2022-08-28T05:33:11.970Z,16.81
2022-08-28T05:34:11.944Z,16.90
2022-08-28T05:35:11.895Z,16.95
2022-08-28T05:36:11.855Z,17.02
2022-08-28T05:37:13.050Z,17.05
2022-08-28T05:38:11.996Z,17.05
2022-08-28T05:39:11.761Z,17.20
2022-08-28T05:40:11.757Z,17.21
2022-08-28T05:41:11.669Z,17.25
2022-08-28T05:42:11.639Z,17.35
2022-08-28T05:43:11.605Z,17.43
2022-08-28T05:44:11.569Z,17.55
2022-08-28T05:45:11.519Z,17.47
2022-08-28T05:46:11.583Z,17.58
2022-08-28T05:47:11.481Z,17.62
2022-08-28T05:48:11.538Z,17.71
2022-08-28T05:49:11.363Z,17.68
2022-08-28T05:50:11.340Z,17.80
2022-08-28T05:51:11.295Z,17.79
2022-08-28T05:52:11.265Z,17.92
2022-08-28T05:53:11.215Z,17.63
2022-08-28T05:54:11.175Z,17.63
2022-08-28T05:55:11.139Z,17.73
2022-08-28T05:56:11.101Z,17.83
2022-08-28T05:57:11.064Z,17.87
2022-08-28T05:58:11.039Z,18.05
2022-08-28T05:59:10.990Z,18.04
2022-08-28T06:00:10.956Z,18.05
2022-08-28T06:01:10.917Z,18.20
2022-08-28T06:02:10.954Z,18.28
2022-08-28T06:03:10.851Z,18.28
2022-08-28T06:04:10.894Z,18.42
2022-08-28T06:05:13.076Z,18.62
2022-08-28T06:06:10.727Z,19.07
2022-08-28T06:07:10.691Z,19.64
2022-08-28T06:08:10.657Z,19.94
2022-08-28T06:09:10.615Z,20.08
2022-08-28T06:10:10.940Z,20.10
2022-08-28T06:11:10.544Z,19.58
2022-08-28T06:12:10.503Z,19.39
2022-08-28T06:13:10.473Z,19.35
2022-08-28T06:14:10.434Z,19.55
2022-08-28T06:15:10.401Z,19.45
2022-08-28T06:16:10.387Z,19.45
2022-08-28T06:17:10.322Z,19.98
2022-08-28T06:18:10.284Z,19.97
2022-08-28T06:19:10.249Z,19.78
2022-08-28T06:20:10.210Z,19.64
2022-08-28T06:21:10.178Z,19.40
2022-08-28T06:22:10.147Z,19.31
2022-08-28T06:23:10.102Z,19.17
2022-08-28T06:24:10.065Z,18.90
2022-08-28T06:25:10.027Z,18.94
2022-08-28T06:26:09.991Z,19.07
2022-08-28T06:27:09.955Z,19.09
2022-08-28T06:28:09.927Z,19.12
2022-08-28T06:29:09.892Z,18.83
2022-08-28T06:30:09.845Z,18.89
2022-08-28T06:31:24.335Z,18.87
2022-08-28T06:32:09.814Z,18.87
2022-08-28T06:33:09.737Z,18.97
2022-08-28T06:34:09.706Z,19.10
2022-08-28T06:35:09.678Z,19.02
2022-08-28T06:36:09.625Z,18.96
2022-08-28T06:37:09.589Z,18.89
2022-08-28T06:38:09.579Z,19.06
2022-08-28T06:39:09.520Z,19.35
2022-08-28T06:40:09.520Z,19.67
2022-08-28T06:41:09.455Z,19.78
2022-08-28T06:42:09.417Z,19.90
2022-08-28T06:43:09.373Z,20.33
2022-08-28T06:44:09.336Z,20.91
2022-08-28T06:45:09.299Z,20.94
2022-08-28T06:46:09.318Z,20.94
2022-08-28T06:47:09.259Z,20.83
2022-08-28T06:48:09.223Z,20.87
2022-08-28T06:49:09.154Z,20.76
2022-08-28T06:50:09.118Z,20.57
2022-08-28T06:51:09.084Z,20.54
2022-08-28T06:52:09.046Z,20.51
2022-08-28T06:53:09.021Z,20.53
2022-08-28T06:54:08.978Z,20.61
2022-08-28T06:55:08.937Z,21.01
2022-08-28T06:56:08.901Z,21.09
2022-08-28T06:57:08.869Z,21.06
2022-08-28T06:58:08.883Z,20.50
2022-08-28T06:59:08.805Z,20.26
2022-08-28T07:00:08.761Z,20.46
2022-08-28T07:01:08.774Z,20.50
2022-08-28T07:02:08.802Z,20.56
2022-08-28T07:03:08.660Z,20.61
2022-08-28T07:04:08.616Z,20.68
2022-08-28T07:05:08.590Z,20.78
2022-08-28T07:06:08.547Z,20.73
2022-08-28T07:07:08.505Z,20.83
2022-08-28T07:08:08.543Z,20.85
2022-08-28T07:09:08.438Z,20.88
2022-08-28T07:10:08.401Z,21.05
2022-08-28T07:11:08.379Z,20.88
2022-08-28T07:12:08.329Z,20.48
2022-08-28T07:13:08.292Z,20.97
2022-08-28T07:14:08.257Z,22.05
2022-08-28T07:15:08.221Z,22.38
2022-08-28T07:16:08.205Z,22.57
2022-08-28T07:17:08.159Z,23.35
2022-08-28T07:18:08.153Z,23.23
2022-08-28T07:19:08.093Z,23.52
2022-08-28T07:20:08.049Z,23.81
2022-08-28T07:21:12.092Z,23.97
2022-08-28T07:22:07.976Z,24.19
2022-08-28T07:23:07.937Z,24.68
2022-08-28T07:24:07.902Z,24.86
2022-08-28T07:25:07.880Z,25.07
2022-08-28T07:26:07.836Z,25.14
2022-08-28T07:27:07.801Z,24.94
2022-08-28T07:28:07.766Z,24.99
2022-08-28T07:29:10.912Z,25.36
2022-08-28T07:30:07.697Z,25.61
2022-08-28T07:31:07.732Z,25.64
2022-08-28T07:32:07.628Z,25.57
2022-08-28T07:33:07.595Z,25.29
2022-08-28T07:34:07.559Z,25.56
2022-08-28T07:35:07.527Z,25.53
2022-08-28T07:36:07.491Z,25.38
2022-08-28T07:37:08.142Z,25.23
2022-08-28T07:38:07.425Z,25.30
2022-08-28T07:39:07.391Z,25.20
2022-08-28T07:40:07.432Z,24.44
2022-08-28T07:41:07.351Z,24.86
2022-08-28T07:42:07.294Z,24.51
2022-08-28T07:43:07.272Z,24.46
2022-08-28T07:44:07.227Z,24.09
2022-08-28T07:45:07.198Z,23.21
2022-08-28T07:46:07.249Z,23.12
2022-08-28T07:47:08.873Z,22.91
2022-08-28T07:48:11.146Z,23.54
2022-08-28T07:49:07.069Z,23.59
2022-08-28T07:50:07.028Z,23.77
2022-08-28T07:51:06.996Z,23.56
2022-08-28T07:52:06.961Z,23.53
2022-08-28T07:53:06.925Z,23.97
2022-08-28T07:54:06.897Z,24.42
2022-08-28T07:55:06.876Z,24.48
2022-08-28T07:56:06.829Z,24.99
2022-08-28T07:57:06.797Z,24.31
2022-08-28T07:58:06.764Z,23.97
2022-08-28T07:59:06.728Z,24.21
2022-08-28T08:00:06.696Z,23.71
2022-08-28T08:01:06.703Z,23.87
2022-08-28T08:02:06.642Z,24.27
2022-08-28T08:03:06.638Z,23.94
2022-08-28T08:04:06.563Z,24.53
2022-08-28T08:05:06.588Z,25.16
2022-08-28T08:06:06.497Z,25.38
2022-08-28T08:07:06.467Z,25.51
2022-08-28T08:08:06.487Z,25.86
2022-08-28T08:09:06.400Z,25.31
2022-08-28T08:10:06.366Z,25.07
2022-08-28T08:11:06.332Z,25.72
2022-08-28T08:12:06.300Z,26.00
2022-08-28T08:13:06.267Z,26.13
2022-08-28T08:14:06.248Z,25.83
2022-08-28T08:15:06.200Z,25.94
2022-08-28T08:16:06.235Z,26.46
2022-08-28T08:17:07.466Z,26.68
2022-08-28T08:18:06.181Z,26.34
2022-08-28T08:19:06.084Z,25.96
2022-08-28T08:20:06.047Z,25.91
2022-08-28T08:21:06.011Z,25.93
2022-08-28T08:22:05.983Z,26.38
2022-08-28T08:23:05.944Z,26.71
2022-08-28T08:24:05.921Z,26.17
2022-08-28T08:25:05.897Z,25.63
2022-08-28T08:26:05.848Z,24.90
2022-08-28T08:27:05.816Z,24.90
2022-08-28T08:28:05.802Z,25.09
2022-08-28T08:29:05.756Z,24.16
2022-08-28T08:30:05.727Z,23.53
2022-08-28T08:31:05.771Z,23.29
2022-08-28T08:32:06.339Z,23.21
2022-08-28T08:33:05.628Z,23.69
2022-08-28T08:34:05.591Z,23.16
2022-08-28T08:35:05.559Z,22.24
2022-08-28T08:36:05.538Z,22.36
2022-08-28T08:37:05.570Z,23.07
2022-08-28T08:38:05.471Z,23.62
2022-08-28T08:39:06.576Z,24.00
2022-08-28T08:40:10.051Z,24.77
2022-08-28T08:41:05.371Z,24.53
2022-08-28T08:42:05.329Z,24.29
2022-08-28T08:43:05.309Z,24.64
2022-08-28T08:44:05.264Z,24.52
2022-08-28T08:45:05.231Z,24.37
2022-08-28T08:46:05.247Z,24.79
2022-08-28T08:47:05.165Z,25.24
2022-08-28T08:48:05.261Z,25.05
2022-08-28T08:49:05.109Z,24.39
2022-08-28T08:50:05.069Z,24.83
2022-08-28T08:51:05.039Z,25.12
2022-08-28T08:52:05.016Z,24.64
2022-08-28T08:53:04.967Z,23.96
2022-08-28T08:54:04.936Z,23.86
2022-08-28T08:55:04.931Z,24.08
2022-08-28T08:56:04.872Z,24.39
2022-08-28T08:57:04.838Z,24.08
2022-08-28T08:58:04.864Z,24.04
2022-08-28T08:59:04.777Z,23.25
2022-08-28T09:00:04.739Z,23.60
2022-08-28T09:01:04.773Z,23.71
2022-08-28T09:02:04.673Z,23.97
2022-08-28T09:03:04.737Z,24.05
2022-08-28T09:04:04.608Z,24.90
2022-08-28T09:05:04.578Z,25.23
2022-08-28T09:06:04.545Z,25.30
2022-08-28T09:07:04.524Z,25.75
2022-08-28T09:08:04.480Z,26.11
2022-08-28T09:09:04.454Z,26.60
2022-08-28T09:10:04.420Z,26.65
2022-08-28T09:11:04.385Z,26.39
2022-08-28T09:12:04.353Z,24.90
2022-08-28T09:13:04.349Z,24.23
2022-08-28T09:14:04.293Z,23.69
2022-08-28T09:15:04.258Z,23.86
2022-08-28T09:16:04.267Z,23.71
2022-08-28T09:17:04.194Z,24.27
2022-08-28T09:18:04.161Z,24.37
2022-08-28T09:19:04.141Z,24.87
2022-08-28T09:20:04.097Z,25.44
2022-08-28T09:21:04.072Z,25.61
2022-08-28T09:22:04.041Z,25.93
2022-08-28T09:23:12.352Z,26.41
2022-08-28T09:24:05.836Z,26.20
2022-08-28T09:25:03.952Z,25.75
2022-08-28T09:26:03.909Z,25.66
2022-08-28T09:27:03.882Z,25.79
2022-08-28T09:28:03.852Z,26.35
2022-08-28T09:29:03.825Z,26.54
2022-08-28T09:30:07.718Z,26.75
2022-08-28T09:31:03.909Z,26.94
2022-08-28T09:32:03.722Z,26.91
2022-08-28T09:33:03.687Z,26.97
2022-08-28T09:34:03.661Z,26.27
2022-08-28T09:35:03.645Z,26.17
2022-08-28T09:36:03.596Z,25.79
2022-08-28T09:37:03.568Z,24.92
2022-08-28T09:38:03.538Z,23.97
2022-08-28T09:39:03.506Z,23.68
2022-08-28T09:40:03.558Z,23.23
2022-08-28T09:41:03.456Z,23.18
2022-08-28T09:42:03.416Z,23.64
2022-08-28T09:43:03.388Z,24.06
2022-08-28T09:44:03.353Z,24.70
2022-08-28T09:45:09.241Z,24.89
2022-08-28T09:46:03.337Z,24.52
2022-08-28T09:47:03.271Z,25.02
2022-08-28T09:48:03.226Z,25.31
2022-08-28T09:49:03.201Z,25.49
2022-08-28T09:50:03.186Z,25.27
2022-08-28T09:51:03.138Z,25.59
2022-08-28T09:52:03.117Z,25.90
2022-08-28T09:53:03.102Z,25.91
2022-08-28T09:54:03.046Z,25.93
2022-08-28T09:55:03.015Z,25.69
2022-08-28T09:56:02.985Z,25.69
2022-08-28T09:57:02.951Z,25.94
2022-08-28T09:58:02.932Z,25.81
2022-08-28T09:59:02.902Z,25.94
2022-08-28T10:00:02.859Z,24.97
2022-08-28T10:01:02.836Z,24.23
2022-08-28T10:02:02.836Z,23.96
2022-08-28T10:03:07.402Z,24.33
2022-08-28T10:04:02.775Z,24.68
2022-08-28T10:05:02.756Z,24.74
2022-08-28T10:06:02.692Z,25.04
2022-08-28T10:07:02.643Z,25.41
2022-08-28T10:08:02.617Z,25.71
2022-08-28T10:09:02.603Z,26.29
2022-08-28T10:10:02.556Z,26.13
2022-08-28T10:11:02.521Z,25.75
2022-08-28T10:12:02.489Z,25.19
2022-08-28T10:13:02.460Z,24.42
2022-08-28T10:14:02.429Z,23.74
2022-08-28T10:15:02.417Z,23.53
2022-08-28T10:16:02.417Z,24.14
2022-08-28T10:17:02.335Z,24.67
2022-08-28T10:18:02.304Z,24.68
2022-08-28T10:19:02.275Z,24.31
2022-08-28T10:20:02.246Z,24.61
2022-08-28T10:21:02.227Z,24.89
2022-08-28T10:22:02.181Z,25.19
2022-08-28T10:23:02.147Z,25.31
2022-08-28T10:24:02.121Z,25.14
2022-08-28T10:25:02.094Z,24.51
2022-08-28T10:26:02.057Z,24.52
2022-08-28T10:27:02.024Z,25.01
2022-08-28T10:28:02.015Z,25.29
2022-08-28T10:29:01.963Z,25.64
2022-08-28T10:30:06.728Z,26.09
2022-08-28T10:31:01.967Z,26.36
2022-08-28T10:32:01.870Z,26.60
2022-08-28T10:33:01.836Z,26.64
2022-08-28T10:34:01.806Z,26.41
2022-08-28T10:35:01.777Z,25.96
2022-08-28T10:36:01.743Z,25.39
2022-08-28T10:37:01.728Z,25.01
2022-08-28T10:38:01.680Z,25.22
2022-08-28T10:39:01.651Z,25.42
2022-08-28T10:40:01.641Z,25.46
2022-08-28T10:41:01.585Z,25.20
2022-08-28T10:42:01.557Z,24.71
2022-08-28T10:43:01.537Z,24.56
2022-08-28T10:44:01.491Z,24.83
2022-08-28T10:45:01.461Z,24.77
2022-08-28T10:46:01.452Z,25.14
2022-08-28T10:47:01.398Z,25.22
2022-08-28T10:48:01.370Z,25.09
2022-08-28T10:49:01.343Z,24.99
2022-08-28T10:50:01.305Z,24.70
2022-08-28T10:51:01.271Z,24.92
2022-08-28T10:52:01.241Z,25.11
2022-08-28T10:53:01.209Z,24.63
2022-08-28T10:54:01.179Z,24.02
2022-08-28T10:55:01.159Z,24.16
2022-08-28T10:56:10.392Z,24.70
2022-08-28T10:57:01.088Z,24.90
2022-08-28T10:58:01.052Z,25.05
2022-08-28T10:59:01.021Z,25.35
2022-08-28T11:00:00.988Z,25.54
2022-08-28T11:01:01.045Z,25.71
2022-08-28T11:02:00.978Z,25.86
2022-08-28T11:03:00.965Z,26.08
2022-08-28T11:04:00.864Z,26.04
2022-08-28T11:05:00.837Z,26.01
2022-08-28T11:06:00.813Z,26.04
2022-08-28T11:07:00.817Z,26.16
2022-08-28T11:08:00.826Z,25.91
2022-08-28T11:09:00.736Z,26.13
2022-08-28T11:10:00.724Z,25.79
2022-08-28T11:11:00.656Z,25.17
2022-08-28T11:12:02.285Z,25.14
2022-08-28T11:13:00.575Z,25.30
2022-08-28T11:14:00.544Z,25.49
2022-08-28T11:15:00.513Z,25.61
2022-08-28T11:16:00.482Z,25.86
2022-08-28T11:17:00.526Z,26.08
2022-08-28T11:18:00.415Z,26.32
2022-08-28T11:19:00.386Z,26.44
2022-08-28T11:20:00.353Z,26.17
2022-08-28T11:21:00.320Z,25.56
2022-08-28T11:22:00.305Z,25.44
2022-08-28T11:23:00.260Z,25.42
2022-08-28T11:24:00.234Z,25.64
2022-08-28T11:25:04.285Z,25.82
2022-08-28T11:26:00.159Z,25.36
2022-08-28T11:27:00.130Z,25.61
2022-08-28T11:28:00.113Z,25.54
2022-08-28T11:29:00.077Z,25.64
2022-08-28T11:30:00.034Z,25.86
2022-08-28T11:31:00.076Z,26.12
2022-08-28T11:31:59.973Z,26.32
2022-08-28T11:32:59.939Z,26.16
2022-08-28T11:33:59.906Z,26.20
2022-08-28T11:34:59.889Z,26.21
2022-08-28T11:35:59.840Z,26.32
2022-08-28T11:36:59.813Z,26.47
2022-08-28T11:37:59.780Z,26.42
2022-08-28T11:38:59.747Z,26.19
2022-08-28T11:39:59.825Z,25.91
2022-08-28T11:40:59.761Z,25.60
2022-08-28T11:41:59.656Z,25.89
2022-08-28T11:42:59.621Z,25.89
2022-08-28T11:43:59.588Z,26.11
2022-08-28T11:44:59.559Z,26.11
2022-08-28T11:45:59.553Z,26.21
2022-08-28T11:46:59.497Z,26.34
2022-08-28T11:47:59.466Z,26.61
2022-08-28T11:48:59.433Z,26.41
2022-08-28T11:49:59.402Z,25.72
2022-08-28T11:50:59.493Z,25.63
2022-08-28T11:51:59.351Z,25.64
2022-08-28T11:52:59.315Z,25.41
2022-08-28T11:53:59.279Z,24.59
2022-08-28T11:54:59.252Z,24.26
2022-08-28T11:55:59.220Z,24.06
2022-08-28T11:56:59.191Z,24.00
2022-08-28T11:58:20.197Z,24.31
2022-08-28T11:58:59.234Z,24.63
2022-08-28T11:59:59.094Z,25.02
2022-08-28T12:00:59.070Z,25.09
2022-08-28T12:01:59.120Z,24.84
2022-08-28T12:02:59.951Z,24.86
2022-08-28T12:03:59.059Z,24.99
2022-08-28T12:04:58.952Z,25.01
2022-08-28T12:05:58.910Z,24.90
2022-08-28T12:06:58.890Z,24.42
2022-08-28T12:07:58.849Z,24.33
2022-08-28T12:08:58.817Z,24.44
2022-08-28T12:10:02.912Z,24.90
2022-08-28T12:10:58.773Z,25.22
2022-08-28T12:11:58.726Z,25.42
2022-08-28T12:12:58.693Z,25.57
2022-08-28T12:13:58.675Z,25.67
2022-08-28T12:14:58.645Z,25.81
2022-08-28T12:15:58.652Z,25.91
2022-08-28T12:16:58.582Z,26.04
2022-08-28T12:17:58.545Z,26.04
2022-08-28T12:18:58.515Z,25.97
2022-08-28T12:19:58.508Z,25.69
2022-08-28T12:20:58.470Z,25.45
2022-08-28T12:21:58.577Z,24.98
2022-08-28T12:22:58.389Z,24.44
2022-08-28T12:23:59.227Z,24.56
2022-08-28T12:24:58.337Z,24.53
2022-08-28T12:25:58.297Z,24.75
2022-08-28T12:26:58.271Z,25.01
2022-08-28T12:27:58.247Z,24.77
2022-08-28T12:28:58.215Z,24.79
2022-08-28T12:29:58.970Z,24.75
2022-08-28T12:30:58.304Z,24.74
2022-08-28T12:31:58.155Z,24.83
2022-08-28T12:32:58.082Z,24.74
2022-08-28T12:33:58.065Z,24.68
2022-08-28T12:34:58.023Z,24.83
2022-08-28T12:35:58.000Z,24.93
2022-08-28T12:36:57.961Z,25.05
2022-08-28T12:37:57.952Z,25.19
2022-08-28T12:38:57.904Z,25.19
2022-08-28T12:39:57.913Z,25.08
2022-08-28T12:40:57.837Z,24.97
2022-08-28T12:41:57.817Z,24.84
2022-08-28T12:42:57.816Z,24.68
2022-08-28T12:43:57.822Z,24.53
2022-08-28T12:44:57.736Z,24.48
2022-08-28T12:45:58.394Z,24.48
2022-08-28T12:46:57.659Z,24.49
2022-08-28T12:47:57.628Z,24.64
2022-08-28T12:48:57.614Z,24.83
2022-08-28T12:49:57.600Z,24.93
2022-08-28T12:50:57.555Z,24.92
2022-08-28T12:51:57.535Z,24.93